OINZ

Dasht-e Naz Airport

Airport
ICAO code
OINZ
IATA Code
SRY
Summary
ICAO Region
MID
ICAO Territory
Location

Shah Abad, Mazandaran Province

Serving
Sari
Elevation
35 ft
Coordinates
36° 37' 37" N , 53° 12' 14" E
KCC
Metar
Observation
OINZ 061400Z 04004KT CAVOK 07/05 Q1028
Station
SARY DASHTE NAZ
Date/Time
2022-12-06 14:00:00
Wind direction
40°
Wind speed
04 kts
Lowest cloud amount
clouds and visibility OK
Temperature
7°C
Dew point
5°C
Humidity
87%
QNH
1028 hPa
Weather condition
n/a

Airport located 23km northeast of Sari, Iran.

Climatology

Humid sub-tropical climate (Köppen climate classification Cfa).

Runways

Designator Length Width Surface Rops
16/34 2648 45 ASP No/No

Airport map

Aerial View

SKYbrary Partners:

Safety knowledge contributed by: